sensor_id;sensor_type;location;lat;lon;timestamp;P1;durP1;ratioP1;P2;durP2;ratioP2
53253;SDS011;39148;53.332;6.922;2023-10-19T00:01:58;9.25;;;5.90;;
53253;SDS011;39148;53.332;6.922;2023-10-19T00:04:25;9.43;;;5.78;;
53253;SDS011;39148;53.332;6.922;2023-10-19T00:06:52;8.68;;;5.90;;
53253;SDS011;39148;53.332;6.922;2023-10-19T00:09:20;9.55;;;6.00;;
53253;SDS011;39148;53.332;6.922;2023-10-19T00:11:46;10.13;;;6.20;;
53253;SDS011;39148;53.332;6.922;2023-10-19T00:14:16;9.27;;;6.13;;
53253;SDS011;39148;53.332;6.922;2023-10-19T00:16:46;8.30;;;6.07;;
53253;SDS011;39148;53.332;6.922;2023-10-19T00:19:25;10.52;;;6.30;;
53253;SDS011;39148;53.332;6.922;2023-10-19T00:21:53;10.00;;;5.93;;
53253;SDS011;39148;53.332;6.922;2023-10-19T00:24:33;9.68;;;6.63;;
53253;SDS011;39148;53.332;6.922;2023-10-19T00:27:04;7.75;;;5.88;;
53253;SDS011;39148;53.332;6.922;2023-10-19T00:29:41;11.10;;;6.45;;
53253;SDS011;39148;53.332;6.922;2023-10-19T00:32:15;8.82;;;5.93;;
53253;SDS011;39148;53.332;6.922;2023-10-19T00:34:41;9.90;;;6.40;;
53253;SDS011;39148;53.332;6.922;2023-10-19T00:37:15;10.55;;;7.15;;
53253;SDS011;39148;53.332;6.922;2023-10-19T00:39:44;10.60;;;6.43;;
53253;SDS011;39148;53.332;6.922;2023-10-19T00:42:18;10.40;;;6.57;;
53253;SDS011;39148;53.332;6.922;2023-10-19T00:44:49;8.82;;;5.85;;
53253;SDS011;39148;53.332;6.922;2023-10-19T00:47:15;10.30;;;6.63;;
53253;SDS011;39148;53.332;6.922;2023-10-19T00:49:47;9.90;;;6.28;;
53253;SDS011;39148;53.332;6.922;2023-10-19T00:52:13;8.77;;;6.45;;
53253;SDS011;39148;53.332;6.922;2023-10-19T00:54:48;9.27;;;6.68;;
53253;SDS011;39148;53.332;6.922;2023-10-19T00:57:15;9.65;;;6.28;;
53253;SDS011;39148;53.332;6.922;2023-10-19T00:59:45;11.45;;;6.43;;
53253;SDS011;39148;53.332;6.922;2023-10-19T01:02:18;10.10;;;6.07;;
53253;SDS011;39148;53.332;6.922;2023-10-19T01:04:51;9.55;;;6.45;;
53253;SDS011;39148;53.332;6.922;2023-10-19T01:07:24;11.95;;;6.80;;
53253;SDS011;39148;53.332;6.922;2023-10-19T01:09:58;9.75;;;6.55;;
53253;SDS011;39148;53.332;6.922;2023-10-19T01:12:25;9.40;;;6.93;;
53253;SDS011;39148;53.332;6.922;2023-10-19T01:17:46;10.07;;;6.13;;
53253;SDS011;39148;53.332;6.922;2023-10-19T01:20:22;11.10;;;7.15;;
53253;SDS011;39148;53.332;6.922;2023-10-19T01:23:08;13.30;;;7.07;;
53253;SDS011;39148;53.332;6.922;2023-10-19T01:25:53;11.13;;;6.38;;
53253;SDS011;39148;53.332;6.922;2023-10-19T01:28:21;8.98;;;6.32;;
53253;SDS011;39148;53.332;6.922;2023-10-19T01:30:50;11.65;;;7.07;;
53253;SDS011;39148;53.332;6.922;2023-10-19T01:33:19;9.52;;;6.47;;
53253;SDS011;39148;53.332;6.922;2023-10-19T01:35:46;10.63;;;6.45;;
53253;SDS011;39148;53.332;6.922;2023-10-19T01:38:31;9.20;;;6.75;;
53253;SDS011;39148;53.332;6.922;2023-10-19T01:40:57;9.88;;;6.57;;
53253;SDS011;39148;53.332;6.922;2023-10-19T01:43:27;12.23;;;7.68;;
53253;SDS011;39148;53.332;6.922;2023-10-19T01:45:56;13.07;;;7.13;;
53253;SDS011;39148;53.332;6.922;2023-10-19T01:48:23;11.25;;;7.13;;
53253;SDS011;39148;53.332;6.922;2023-10-19T01:51:03;9.18;;;6.88;;
53253;SDS011;39148;53.332;6.922;2023-10-19T01:53:33;9.75;;;6.80;;
53253;SDS011;39148;53.332;6.922;2023-10-19T01:56:04;9.93;;;6.72;;
53253;SDS011;39148;53.332;6.922;2023-10-19T01:58:31;10.20;;;6.97;;
53253;SDS011;39148;53.332;6.922;2023-10-19T02:01:01;10.20;;;6.65;;
53253;SDS011;39148;53.332;6.922;2023-10-19T02:03:34;9.27;;;7.18;;
53253;SDS011;39148;53.332;6.922;2023-10-19T02:06:00;9.35;;;7.28;;
53253;SDS011;39148;53.332;6.922;2023-10-19T02:08:59;8.60;;;6.35;;
53253;SDS011;39148;53.332;6.922;2023-10-19T02:11:28;10.63;;;7.25;;
53253;SDS011;39148;53.332;6.922;2023-10-19T02:13:54;10.70;;;8.00;;
53253;SDS011;39148;53.332;6.922;2023-10-19T02:16:25;10.13;;;7.13;;
53253;SDS011;39148;53.332;6.922;2023-10-19T02:18:54;10.38;;;7.35;;
53253;SDS011;39148;53.332;6.922;2023-10-19T02:21:20;10.98;;;7.38;;
53253;SDS011;39148;53.332;6.922;2023-10-19T02:23:55;9.77;;;6.57;;
53253;SDS011;39148;53.332;6.922;2023-10-19T02:26:22;10.35;;;7.25;;
53253;SDS011;39148;53.332;6.922;2023-10-19T02:28:51;9.52;;;7.30;;
53253;SDS011;39148;53.332;6.922;2023-10-19T02:31:18;11.00;;;6.97;;
53253;SDS011;39148;53.332;6.922;2023-10-19T02:33:47;9.70;;;7.10;;
53253;SDS011;39148;53.332;6.922;2023-10-19T02:36:27;11.07;;;7.72;;
53253;SDS011;39148;53.332;6.922;2023-10-19T02:38:58;9.93;;;7.00;;
53253;SDS011;39148;53.332;6.922;2023-10-19T02:41:33;9.75;;;7.05;;
53253;SDS011;39148;53.332;6.922;2023-10-19T02:44:04;9.65;;;7.38;;
53253;SDS011;39148;53.332;6.922;2023-10-19T02:46:37;10.65;;;7.57;;
53253;SDS011;39148;53.332;6.922;2023-10-19T02:49:04;10.60;;;7.63;;
53253;SDS011;39148;53.332;6.922;2023-10-19T02:51:36;11.48;;;7.40;;
53253;SDS011;39148;53.332;6.922;2023-10-19T02:54:02;10.52;;;7.25;;
53253;SDS011;39148;53.332;6.922;2023-10-19T02:56:28;10.48;;;7.70;;
53253;SDS011;39148;53.332;6.922;2023-10-19T02:59:00;10.68;;;6.90;;
53253;SDS011;39148;53.332;6.922;2023-10-19T03:01:29;11.82;;;8.07;;
53253;SDS011;39148;53.332;6.922;2023-10-19T03:04:00;10.50;;;7.45;;
53253;SDS011;39148;53.332;6.922;2023-10-19T03:06:30;10.05;;;7.18;;
53253;SDS011;39148;53.332;6.922;2023-10-19T03:08:58;11.32;;;7.10;;
53253;SDS011;39148;53.332;6.922;2023-10-19T03:11:27;10.55;;;6.78;;
53253;SDS011;39148;53.332;6.922;2023-10-19T03:13:54;9.43;;;6.78;;
53253;SDS011;39148;53.332;6.922;2023-10-19T03:16:20;10.63;;;7.45;;
53253;SDS011;39148;53.332;6.922;2023-10-19T03:18:47;9.52;;;6.95;;
53253;SDS011;39148;53.332;6.922;2023-10-19T03:21:12;8.38;;;6.38;;
53253;SDS011;39148;53.332;6.922;2023-10-19T03:23:39;9.45;;;6.50;;
53253;SDS011;39148;53.332;6.922;2023-10-19T03:26:06;8.68;;;6.88;;
53253;SDS011;39148;53.332;6.922;2023-10-19T03:28:50;9.82;;;6.43;;
53253;SDS011;39148;53.332;6.922;2023-10-19T03:31:20;10.35;;;7.07;;
53253;SDS011;39148;53.332;6.922;2023-10-19T03:33:48;10.18;;;7.07;;
53253;SDS011;39148;53.332;6.922;2023-10-19T03:36:23;9.68;;;7.00;;
53253;SDS011;39148;53.332;6.922;2023-10-19T03:38:50;10.10;;;6.90;;
53253;SDS011;39148;53.332;6.922;2023-10-19T03:41:18;9.88;;;6.60;;
53253;SDS011;39148;53.332;6.922;2023-10-19T03:43:49;12.13;;;7.05;;
53253;SDS011;39148;53.332;6.922;2023-10-19T03:46:17;9.05;;;6.05;;
53253;SDS011;39148;53.332;6.922;2023-10-19T03:48:54;8.80;;;6.35;;
53253;SDS011;39148;53.332;6.922;2023-10-19T03:51:27;10.45;;;7.35;;
53253;SDS011;39148;53.332;6.922;2023-10-19T03:54:04;9.10;;;6.30;;
53253;SDS011;39148;53.332;6.922;2023-10-19T03:56:34;7.85;;;5.63;;
53253;SDS011;39148;53.332;6.922;2023-10-19T03:59:02;9.45;;;6.38;;
53253;SDS011;39148;53.332;6.922;2023-10-19T04:01:29;8.85;;;6.10;;
53253;SDS011;39148;53.332;6.922;2023-10-19T04:03:56;7.90;;;5.72;;
53253;SDS011;39148;53.332;6.922;2023-10-19T04:06:22;8.93;;;6.10;;
53253;SDS011;39148;53.332;6.922;2023-10-19T04:08:48;8.88;;;6.10;;
53253;SDS011;39148;53.332;6.922;2023-10-19T04:11:16;9.45;;;5.80;;
53253;SDS011;39148;53.332;6.922;2023-10-19T04:13:51;9.02;;;5.43;;
53253;SDS011;39148;53.332;6.922;2023-10-19T04:16:18;7.75;;;5.45;;
53253;SDS011;39148;53.332;6.922;2023-10-19T04:18:44;8.32;;;5.20;;
53253;SDS011;39148;53.332;6.922;2023-10-19T04:21:10;7.60;;;5.60;;
53253;SDS011;39148;53.332;6.922;2023-10-19T04:23:36;8.10;;;5.13;;
53253;SDS011;39148;53.332;6.922;2023-10-19T04:26:02;7.05;;;4.90;;
53253;SDS011;39148;53.332;6.922;2023-10-19T04:28:35;7.78;;;4.82;;
53253;SDS011;39148;53.332;6.922;2023-10-19T04:31:17;7.45;;;5.20;;
53253;SDS011;39148;53.332;6.922;2023-10-19T04:33:44;7.97;;;4.72;;
53253;SDS011;39148;53.332;6.922;2023-10-19T04:36:14;10.38;;;5.03;;
53253;SDS011;39148;53.332;6.922;2023-10-19T04:38:41;7.78;;;4.97;;
53253;SDS011;39148;53.332;6.922;2023-10-19T04:41:09;6.63;;;4.47;;
53253;SDS011;39148;53.332;6.922;2023-10-19T04:43:36;5.55;;;3.88;;
53253;SDS011;39148;53.332;6.922;2023-10-19T04:46:04;7.57;;;4.80;;
53253;SDS011;39148;53.332;6.922;2023-10-19T04:48:36;5.10;;;3.70;;
53253;SDS011;39148;53.332;6.922;2023-10-19T04:51:05;7.13;;;4.85;;
53253;SDS011;39148;53.332;6.922;2023-10-19T04:53:32;7.75;;;4.45;;
53253;SDS011;39148;53.332;6.922;2023-10-19T04:55:58;6.03;;;4.30;;
53253;SDS011;39148;53.332;6.922;2023-10-19T04:58:28;8.07;;;4.47;;
53253;SDS011;39148;53.332;6.922;2023-10-19T05:00:53;6.75;;;4.10;;
53253;SDS011;39148;53.332;6.922;2023-10-19T05:03:19;6.13;;;3.97;;
53253;SDS011;39148;53.332;6.922;2023-10-19T05:05:45;6.68;;;3.90;;
53253;SDS011;39148;53.332;6.922;2023-10-19T05:08:11;6.22;;;4.25;;
53253;SDS011;39148;53.332;6.922;2023-10-19T05:10:37;6.13;;;4.18;;
53253;SDS011;39148;53.332;6.922;2023-10-19T05:13:03;5.88;;;3.78;;
53253;SDS011;39148;53.332;6.922;2023-10-19T05:15:29;5.85;;;3.75;;
53253;SDS011;39148;53.332;6.922;2023-10-19T05:17:55;6.50;;;3.83;;
53253;SDS011;39148;53.332;6.922;2023-10-19T05:20:21;6.38;;;3.85;;
53253;SDS011;39148;53.332;6.922;2023-10-19T05:22:48;5.30;;;3.20;;
53253;SDS011;39148;53.332;6.922;2023-10-19T05:25:14;6.47;;;3.70;;
53253;SDS011;39148;53.332;6.922;2023-10-19T05:27:40;6.78;;;3.78;;
53253;SDS011;39148;53.332;6.922;2023-10-19T05:30:07;5.28;;;3.50;;
53253;SDS011;39148;53.332;6.922;2023-10-19T05:32:36;5.80;;;3.50;;
53253;SDS011;39148;53.332;6.922;2023-10-19T05:35:02;5.95;;;3.58;;
53253;SDS011;39148;53.332;6.922;2023-10-19T05:37:30;5.15;;;3.40;;
53253;SDS011;39148;53.332;6.922;2023-10-19T05:39:56;5.10;;;3.13;;
53253;SDS011;39148;53.332;6.922;2023-10-19T05:42:22;5.72;;;3.25;;
53253;SDS011;39148;53.332;6.922;2023-10-19T05:44:48;4.75;;;2.97;;
53253;SDS011;39148;53.332;6.922;2023-10-19T05:47:14;5.70;;;3.45;;
53253;SDS011;39148;53.332;6.922;2023-10-19T05:49:40;4.75;;;3.00;;
53253;SDS011;39148;53.332;6.922;2023-10-19T05:52:06;6.55;;;3.22;;
53253;SDS011;39148;53.332;6.922;2023-10-19T05:54:32;5.70;;;3.10;;
53253;SDS011;39148;53.332;6.922;2023-10-19T05:56:58;5.60;;;3.20;;
53253;SDS011;39148;53.332;6.922;2023-10-19T05:59:24;4.70;;;3.03;;
53253;SDS011;39148;53.332;6.922;2023-10-19T06:01:51;4.72;;;3.30;;
53253;SDS011;39148;53.332;6.922;2023-10-19T06:04:17;4.88;;;3.13;;
53253;SDS011;39148;53.332;6.922;2023-10-19T06:06:43;6.43;;;3.20;;
53253;SDS011;39148;53.332;6.922;2023-10-19T06:09:09;4.63;;;2.72;;
53253;SDS011;39148;53.332;6.922;2023-10-19T06:11:35;4.10;;;2.65;;
53253;SDS011;39148;53.332;6.922;2023-10-19T06:14:03;4.88;;;2.60;;
53253;SDS011;39148;53.332;6.922;2023-10-19T06:16:32;4.68;;;2.65;;
53253;SDS011;39148;53.332;6.922;2023-10-19T06:18:59;4.43;;;2.63;;
53253;SDS011;39148;53.332;6.922;2023-10-19T06:21:25;4.50;;;2.55;;
53253;SDS011;39148;53.332;6.922;2023-10-19T06:23:51;4.70;;;2.75;;
53253;SDS011;39148;53.332;6.922;2023-10-19T06:26:18;5.00;;;2.78;;
53253;SDS011;39148;53.332;6.922;2023-10-19T06:28:44;4.57;;;2.72;;
53253;SDS011;39148;53.332;6.922;2023-10-19T06:31:10;5.40;;;2.80;;
53253;SDS011;39148;53.332;6.922;2023-10-19T06:33:36;4.40;;;2.58;;
53253;SDS011;39148;53.332;6.922;2023-10-19T06:36:06;4.35;;;2.47;;
53253;SDS011;39148;53.332;6.922;2023-10-19T06:38:32;4.07;;;2.30;;
53253;SDS011;39148;53.332;6.922;2023-10-19T06:41:02;5.38;;;2.63;;
53253;SDS011;39148;53.332;6.922;2023-10-19T06:43:36;4.88;;;2.53;;
53253;SDS011;39148;53.332;6.922;2023-10-19T06:46:05;4.40;;;2.33;;
53253;SDS011;39148;53.332;6.922;2023-10-19T06:48:32;4.38;;;2.40;;
53253;SDS011;39148;53.332;6.922;2023-10-19T06:50:58;4.15;;;2.42;;
53253;SDS011;39148;53.332;6.922;2023-10-19T06:53:25;5.38;;;2.17;;
53253;SDS011;39148;53.332;6.922;2023-10-19T06:55:51;4.82;;;2.53;;
53253;SDS011;39148;53.332;6.922;2023-10-19T06:58:18;6.43;;;2.28;;
53253;SDS011;39148;53.332;6.922;2023-10-19T07:00:46;3.92;;;2.17;;
53253;SDS011;39148;53.332;6.922;2023-10-19T07:03:21;4.57;;;2.03;;
53253;SDS011;39148;53.332;6.922;2023-10-19T07:05:48;4.20;;;2.00;;
53253;SDS011;39148;53.332;6.922;2023-10-19T07:08:14;3.88;;;2.10;;
53253;SDS011;39148;53.332;6.922;2023-10-19T07:10:40;4.43;;;2.30;;
53253;SDS011;39148;53.332;6.922;2023-10-19T07:13:08;4.65;;;2.15;;
53253;SDS011;39148;53.332;6.922;2023-10-19T07:15:33;3.40;;;2.08;;
53253;SDS011;39148;53.332;6.922;2023-10-19T07:17:59;3.80;;;2.05;;
53253;SDS011;39148;53.332;6.922;2023-10-19T07:20:25;3.88;;;2.30;;
53253;SDS011;39148;53.332;6.922;2023-10-19T07:23:00;4.85;;;2.15;;
53253;SDS011;39148;53.332;6.922;2023-10-19T07:25:49;3.67;;;1.80;;
53253;SDS011;39148;53.332;6.922;2023-10-19T07:28:19;3.95;;;2.28;;
53253;SDS011;39148;53.332;6.922;2023-10-19T07:30:46;3.70;;;1.95;;
53253;SDS011;39148;53.332;6.922;2023-10-19T07:33:12;3.78;;;1.80;;
53253;SDS011;39148;53.332;6.922;2023-10-19T07:35:42;4.82;;;2.10;;
53253;SDS011;39148;53.332;6.922;2023-10-19T07:38:11;3.80;;;2.03;;
53253;SDS011;39148;53.332;6.922;2023-10-19T07:40:38;5.18;;;2.10;;
53253;SDS011;39148;53.332;6.922;2023-10-19T07:43:04;4.13;;;1.92;;
53253;SDS011;39148;53.332;6.922;2023-10-19T07:45:30;3.20;;;1.65;;
53253;SDS011;39148;53.332;6.922;2023-10-19T07:47:57;3.72;;;2.00;;
53253;SDS011;39148;53.332;6.922;2023-10-19T07:50:31;3.95;;;2.05;;
53253;SDS011;39148;53.332;6.922;2023-10-19T07:52:58;3.40;;;2.03;;
53253;SDS011;39148;53.332;6.922;2023-10-19T07:55:24;3.45;;;1.73;;
53253;SDS011;39148;53.332;6.922;2023-10-19T07:57:50;3.70;;;1.92;;
53253;SDS011;39148;53.332;6.922;2023-10-19T08:00:16;3.58;;;2.03;;
53253;SDS011;39148;53.332;6.922;2023-10-19T08:02:43;3.88;;;1.92;;
53253;SDS011;39148;53.332;6.922;2023-10-19T08:05:15;3.50;;;1.73;;
53253;SDS011;39148;53.332;6.922;2023-10-19T08:07:44;4.32;;;1.70;;
53253;SDS011;39148;53.332;6.922;2023-10-19T08:10:17;5.00;;;1.67;;
53253;SDS011;39148;53.332;6.922;2023-10-19T08:12:45;3.70;;;2.40;;
53253;SDS011;39148;53.332;6.922;2023-10-19T08:15:15;4.10;;;1.83;;
53253;SDS011;39148;53.332;6.922;2023-10-19T08:17:43;3.20;;;1.90;;
53253;SDS011;39148;53.332;6.922;2023-10-19T08:20:10;4.65;;;1.75;;
53253;SDS011;39148;53.332;6.922;2023-10-19T08:22:55;3.08;;;1.75;;
53253;SDS011;39148;53.332;6.922;2023-10-19T08:25:22;4.15;;;1.80;;
53253;SDS011;39148;53.332;6.922;2023-10-19T08:27:49;3.58;;;1.98;;
53253;SDS011;39148;53.332;6.922;2023-10-19T08:30:16;4.03;;;1.90;;
53253;SDS011;39148;53.332;6.922;2023-10-19T08:32:43;3.55;;;1.80;;
53253;SDS011;39148;53.332;6.922;2023-10-19T08:35:13;2.83;;;1.50;;
53253;SDS011;39148;53.332;6.922;2023-10-19T08:37:41;3.42;;;1.70;;
53253;SDS011;39148;53.332;6.922;2023-10-19T08:40:07;4.35;;;1.88;;
53253;SDS011;39148;53.332;6.922;2023-10-19T08:42:44;4.05;;;1.70;;
53253;SDS011;39148;53.332;6.922;2023-10-19T08:45:11;3.50;;;1.63;;
53253;SDS011;39148;53.332;6.922;2023-10-19T08:47:43;3.13;;;1.60;;
53253;SDS011;39148;53.332;6.922;2023-10-19T08:50:12;3.25;;;1.70;;
53253;SDS011;39148;53.332;6.922;2023-10-19T08:52:40;4.22;;;1.63;;
53253;SDS011;39148;53.332;6.922;2023-10-19T08:55:08;3.17;;;1.60;;
53253;SDS011;39148;53.332;6.922;2023-10-19T08:57:37;4.20;;;1.60;;
53253;SDS011;39148;53.332;6.922;2023-10-19T09:00:05;3.40;;;1.55;;
53253;SDS011;39148;53.332;6.922;2023-10-19T09:02:32;3.10;;;1.55;;
53253;SDS011;39148;53.332;6.922;2023-10-19T09:05:07;3.58;;;1.50;;
53253;SDS011;39148;53.332;6.922;2023-10-19T09:07:33;4.72;;;1.50;;
53253;SDS011;39148;53.332;6.922;2023-10-19T09:10:00;3.40;;;1.80;;
53253;SDS011;39148;53.332;6.922;2023-10-19T09:12:26;3.30;;;1.48;;
53253;SDS011;39148;53.332;6.922;2023-10-19T09:14:52;3.28;;;1.67;;
53253;SDS011;39148;53.332;6.922;2023-10-19T09:17:27;3.72;;;1.83;;
53253;SDS011;39148;53.332;6.922;2023-10-19T09:19:54;3.45;;;1.48;;
53253;SDS011;39148;53.332;6.922;2023-10-19T09:22:21;2.75;;;1.42;;
53253;SDS011;39148;53.332;6.922;2023-10-19T09:24:50;3.45;;;1.77;;
53253;SDS011;39148;53.332;6.922;2023-10-19T09:27:19;5.00;;;1.70;;
53253;SDS011;39148;53.332;6.922;2023-10-19T09:29:46;2.80;;;1.30;;
53253;SDS011;39148;53.332;6.922;2023-10-19T09:32:13;3.08;;;1.33;;
53253;SDS011;39148;53.332;6.922;2023-10-19T09:34:40;3.00;;;1.45;;
53253;SDS011;39148;53.332;6.922;2023-10-19T09:37:09;3.20;;;1.30;;
53253;SDS011;39148;53.332;6.922;2023-10-19T09:39:36;3.42;;;1.90;;
53253;SDS011;39148;53.332;6.922;2023-10-19T09:44:32;3.30;;;1.38;;
53253;SDS011;39148;53.332;6.922;2023-10-19T09:47:08;2.38;;;1.13;;
53253;SDS011;39148;53.332;6.922;2023-10-19T09:49:42;2.60;;;0.90;;
53253;SDS011;39148;53.332;6.922;2023-10-19T09:52:09;2.70;;;1.50;;
53253;SDS011;39148;53.332;6.922;2023-10-19T09:54:48;4.00;;;1.23;;
53253;SDS011;39148;53.332;6.922;2023-10-19T09:57:36;2.67;;;1.08;;
53253;SDS011;39148;53.332;6.922;2023-10-19T10:00:14;3.45;;;1.25;;
53253;SDS011;39148;53.332;6.922;2023-10-19T10:02:44;2.33;;;1.08;;
53253;SDS011;39148;53.332;6.922;2023-10-19T10:10:46;3.92;;;1.30;;
53253;SDS011;39148;53.332;6.922;2023-10-19T10:15:55;2.75;;;1.23;;
53253;SDS011;39148;53.332;6.922;2023-10-19T10:18:31;2.20;;;0.90;;
53253;SDS011;39148;53.332;6.922;2023-10-19T10:23:58;2.05;;;0.90;;
53253;SDS011;39148;53.332;6.922;2023-10-19T10:26:26;3.20;;;1.00;;
53253;SDS011;39148;53.332;6.922;2023-10-19T10:29:13;3.30;;;1.00;;
53253;SDS011;39148;53.332;6.922;2023-10-19T10:31:45;2.88;;;1.25;;
53253;SDS011;39148;53.332;6.922;2023-10-19T10:37:03;1.98;;;0.95;;
53253;SDS011;39148;53.332;6.922;2023-10-19T10:39:30;1.95;;;1.02;;
53253;SDS011;39148;53.332;6.922;2023-10-19T10:41:57;1.98;;;0.90;;
53253;SDS011;39148;53.332;6.922;2023-10-19T10:44:36;2.42;;;0.90;;
53253;SDS011;39148;53.332;6.922;2023-10-19T10:47:18;2.42;;;1.10;;
53253;SDS011;39148;53.332;6.922;2023-10-19T10:52:29;2.17;;;0.90;;
53253;SDS011;39148;53.332;6.922;2023-10-19T10:54:57;1.65;;;0.90;;
53253;SDS011;39148;53.332;6.922;2023-10-19T10:57:30;1.63;;;0.90;;
53253;SDS011;39148;53.332;6.922;2023-10-19T11:00:09;1.63;;;0.82;;
53253;SDS011;39148;53.332;6.922;2023-10-19T11:02:40;2.03;;;0.93;;
53253;SDS011;39148;53.332;6.922;2023-10-19T11:05:11;2.70;;;0.80;;
53253;SDS011;39148;53.332;6.922;2023-10-19T11:07:39;1.85;;;0.73;;
53253;SDS011;39148;53.332;6.922;2023-10-19T11:10:05;2.83;;;0.80;;
53253;SDS011;39148;53.332;6.922;2023-10-19T11:12:31;1.92;;;0.80;;
53253;SDS011;39148;53.332;6.922;2023-10-19T11:14:59;1.20;;;0.70;;
53253;SDS011;39148;53.332;6.922;2023-10-19T11:17:25;1.98;;;0.90;;
53253;SDS011;39148;53.332;6.922;2023-10-19T11:19:57;1.70;;;0.88;;
53253;SDS011;39148;53.332;6.922;2023-10-19T11:22:23;2.00;;;0.90;;
53253;SDS011;39148;53.332;6.922;2023-10-19T11:24:50;2.97;;;0.80;;
53253;SDS011;39148;53.332;6.922;2023-10-19T11:27:23;2.08;;;0.82;;
53253;SDS011;39148;53.332;6.922;2023-10-19T11:29:55;1.63;;;0.75;;
53253;SDS011;39148;53.332;6.922;2023-10-19T11:32:25;2.53;;;0.95;;
53253;SDS011;39148;53.332;6.922;2023-10-19T11:34:51;2.55;;;0.80;;
53253;SDS011;39148;53.332;6.922;2023-10-19T11:37:20;2.85;;;0.98;;
53253;SDS011;39148;53.332;6.922;2023-10-19T11:39:46;1.77;;;0.65;;
53253;SDS011;39148;53.332;6.922;2023-10-19T11:42:13;1.83;;;0.70;;
53253;SDS011;39148;53.332;6.922;2023-10-19T11:44:38;1.75;;;0.70;;
53253;SDS011;39148;53.332;6.922;2023-10-19T11:47:04;1.83;;;0.77;;
53253;SDS011;39148;53.332;6.922;2023-10-19T11:49:30;1.48;;;0.80;;
53253;SDS011;39148;53.332;6.922;2023-10-19T11:51:56;2.38;;;0.77;;
53253;SDS011;39148;53.332;6.922;2023-10-19T11:54:22;1.63;;;0.80;;
53253;SDS011;39148;53.332;6.922;2023-10-19T11:56:48;1.55;;;0.75;;
53253;SDS011;39148;53.332;6.922;2023-10-19T11:59:14;1.75;;;0.77;;
53253;SDS011;39148;53.332;6.922;2023-10-19T12:01:40;3.33;;;0.80;;
53253;SDS011;39148;53.332;6.922;2023-10-19T12:04:07;1.80;;;0.85;;
53253;SDS011;39148;53.332;6.922;2023-10-19T12:06:34;1.48;;;0.88;;
53253;SDS011;39148;53.332;6.922;2023-10-19T12:09:00;1.60;;;0.70;;
53253;SDS011;39148;53.332;6.922;2023-10-19T12:11:39;2.15;;;0.90;;
53253;SDS011;39148;53.332;6.922;2023-10-19T12:14:06;1.70;;;0.60;;
53253;SDS011;39148;53.332;6.922;2023-10-19T12:16:36;1.85;;;0.77;;
53253;SDS011;39148;53.332;6.922;2023-10-19T12:19:04;1.42;;;0.70;;
53253;SDS011;39148;53.332;6.922;2023-10-19T12:21:30;1.27;;;0.70;;
53253;SDS011;39148;53.332;6.922;2023-10-19T12:23:59;1.38;;;0.70;;
53253;SDS011;39148;53.332;6.922;2023-10-19T12:26:26;1.42;;;0.63;;
53253;SDS011;39148;53.332;6.922;2023-10-19T12:28:52;2.97;;;0.70;;
53253;SDS011;39148;53.332;6.922;2023-10-19T12:31:18;2.67;;;0.70;;
53253;SDS011;39148;53.332;6.922;2023-10-19T12:33:44;1.70;;;0.75;;
53253;SDS011;39148;53.332;6.922;2023-10-19T12:36:10;2.10;;;0.60;;
53253;SDS011;39148;53.332;6.922;2023-10-19T12:38:56;1.10;;;0.60;;
53253;SDS011;39148;53.332;6.922;2023-10-19T12:41:22;1.55;;;0.70;;
53253;SDS011;39148;53.332;6.922;2023-10-19T12:43:52;1.95;;;0.80;;
53253;SDS011;39148;53.332;6.922;2023-10-19T12:46:25;2.08;;;0.77;;
53253;SDS011;39148;53.332;6.922;2023-10-19T12:48:52;1.10;;;0.50;;
53253;SDS011;39148;53.332;6.922;2023-10-19T12:51:20;1.40;;;0.63;;
53253;SDS011;39148;53.332;6.922;2023-10-19T12:53:50;2.40;;;0.80;;
53253;SDS011;39148;53.332;6.922;2023-10-19T12:56:17;2.17;;;0.90;;
53253;SDS011;39148;53.332;6.922;2023-10-19T12:58:43;1.65;;;0.60;;
53253;SDS011;39148;53.332;6.922;2023-10-19T13:01:09;3.05;;;0.65;;
53253;SDS011;39148;53.332;6.922;2023-10-19T13:03:41;2.17;;;0.80;;
53253;SDS011;39148;53.332;6.922;2023-10-19T13:06:10;1.20;;;0.55;;
53253;SDS011;39148;53.332;6.922;2023-10-19T13:08:37;2.08;;;0.80;;
53253;SDS011;39148;53.332;6.922;2023-10-19T13:11:05;1.55;;;0.60;;
53253;SDS011;39148;53.332;6.922;2023-10-19T13:13:32;1.60;;;0.70;;
53253;SDS011;39148;53.332;6.922;2023-10-19T13:16:01;1.48;;;0.55;;
53253;SDS011;39148;53.332;6.922;2023-10-19T13:18:30;1.20;;;0.70;;
53253;SDS011;39148;53.332;6.922;2023-10-19T13:20:59;1.73;;;0.57;;
53253;SDS011;39148;53.332;6.922;2023-10-19T13:23:29;2.95;;;0.65;;
53253;SDS011;39148;53.332;6.922;2023-10-19T13:25:58;2.78;;;0.73;;
53253;SDS011;39148;53.332;6.922;2023-10-19T13:28:34;1.38;;;0.70;;
53253;SDS011;39148;53.332;6.922;2023-10-19T13:31:03;2.53;;;0.80;;
53253;SDS011;39148;53.332;6.922;2023-10-19T13:33:29;2.38;;;0.73;;
53253;SDS011;39148;53.332;6.922;2023-10-19T13:35:55;2.10;;;0.70;;
53253;SDS011;39148;53.332;6.922;2023-10-19T13:38:22;2.63;;;0.70;;
53253;SDS011;39148;53.332;6.922;2023-10-19T13:40:49;1.80;;;0.60;;
53253;SDS011;39148;53.332;6.922;2023-10-19T13:43:15;1.40;;;0.60;;
53253;SDS011;39148;53.332;6.922;2023-10-19T13:45:43;1.77;;;0.70;;
53253;SDS011;39148;53.332;6.922;2023-10-19T13:48:10;1.45;;;0.70;;
53253;SDS011;39148;53.332;6.922;2023-10-19T13:50:47;2.47;;;0.70;;
53253;SDS011;39148;53.332;6.922;2023-10-19T13:53:13;1.83;;;0.70;;
53253;SDS011;39148;53.332;6.922;2023-10-19T13:55:40;2.35;;;0.85;;
53253;SDS011;39148;53.332;6.922;2023-10-19T13:58:07;2.58;;;0.80;;
53253;SDS011;39148;53.332;6.922;2023-10-19T14:00:33;2.28;;;1.10;;
53253;SDS011;39148;53.332;6.922;2023-10-19T14:02:59;3.25;;;0.70;;
53253;SDS011;39148;53.332;6.922;2023-10-19T14:05:26;2.20;;;0.90;;
53253;SDS011;39148;53.332;6.922;2023-10-19T14:07:53;1.95;;;1.00;;
53253;SDS011;39148;53.332;6.922;2023-10-19T14:10:20;2.08;;;1.00;;
53253;SDS011;39148;53.332;6.922;2023-10-19T14:12:47;3.15;;;1.17;;
53253;SDS011;39148;53.332;6.922;2023-10-19T14:15:15;3.88;;;0.88;;
53253;SDS011;39148;53.332;6.922;2023-10-19T14:17:45;4.43;;;1.08;;
53253;SDS011;39148;53.332;6.922;2023-10-19T14:20:16;4.88;;;0.90;;
53253;SDS011;39148;53.332;6.922;2023-10-19T14:25:09;1.95;;;0.82;;
53253;SDS011;39148;53.332;6.922;2023-10-19T14:27:42;2.28;;;1.02;;
53253;SDS011;39148;53.332;6.922;2023-10-19T14:30:11;3.30;;;1.05;;
53253;SDS011;39148;53.332;6.922;2023-10-19T14:32:43;2.42;;;1.20;;
53253;SDS011;39148;53.332;6.922;2023-10-19T14:35:15;3.63;;;1.33;;
53253;SDS011;39148;53.332;6.922;2023-10-19T14:37:42;3.17;;;1.17;;
53253;SDS011;39148;53.332;6.922;2023-10-19T14:40:09;3.45;;;0.98;;
53253;SDS011;39148;53.332;6.922;2023-10-19T14:42:36;3.42;;;1.52;;
53253;SDS011;39148;53.332;6.922;2023-10-19T14:45:07;3.10;;;1.33;;
53253;SDS011;39148;53.332;6.922;2023-10-19T14:47:39;2.35;;;0.90;;
53253;SDS011;39148;53.332;6.922;2023-10-19T14:50:15;3.42;;;1.20;;
53253;SDS011;39148;53.332;6.922;2023-10-19T14:52:43;3.95;;;1.52;;
53253;SDS011;39148;53.332;6.922;2023-10-19T14:55:10;3.65;;;1.25;;
53253;SDS011;39148;53.332;6.922;2023-10-19T14:57:36;4.15;;;1.40;;
53253;SDS011;39148;53.332;6.922;2023-10-19T15:00:07;3.67;;;1.48;;
53253;SDS011;39148;53.332;6.922;2023-10-19T15:02:47;4.65;;;1.40;;
53253;SDS011;39148;53.332;6.922;2023-10-19T15:05:16;3.05;;;1.20;;
53253;SDS011;39148;53.332;6.922;2023-10-19T15:07:43;4.07;;;1.50;;
53253;SDS011;39148;53.332;6.922;2023-10-19T15:10:10;4.60;;;1.67;;
53253;SDS011;39148;53.332;6.922;2023-10-19T15:12:39;3.65;;;1.70;;
53253;SDS011;39148;53.332;6.922;2023-10-19T15:15:08;3.05;;;1.50;;
53253;SDS011;39148;53.332;6.922;2023-10-19T15:17:38;4.60;;;1.67;;
53253;SDS011;39148;53.332;6.922;2023-10-19T15:20:08;3.60;;;1.63;;
53253;SDS011;39148;53.332;6.922;2023-10-19T15:22:36;3.67;;;1.63;;